createdAt,value
2018-08-17T00:04:03.604Z,20.62
2018-08-17T00:10:08.420Z,20.60
2018-08-17T00:16:13.121Z,20.41
2018-08-17T00:22:17.813Z,20.55
2018-08-17T00:28:22.460Z,20.52
2018-08-17T00:34:27.224Z,20.73
2018-08-17T00:40:33.028Z,20.71
2018-08-17T00:46:37.846Z,20.36
2018-08-17T00:52:42.652Z,20.43
2018-08-17T00:58:47.803Z,20.25
2018-08-17T01:04:52.604Z,20.22
2018-08-17T01:10:57.280Z,19.95
2018-08-17T01:17:02.894Z,20.14
2018-08-17T01:23:07.880Z,19.82
2018-08-17T01:29:12.556Z,19.86
2018-08-17T01:35:17.247Z,19.67
2018-08-17T01:41:22.023Z,19.57
2018-08-17T01:47:26.706Z,19.49
2018-08-17T01:53:31.676Z,19.43
2018-08-17T01:59:36.397Z,19.45
2018-08-17T02:05:41.120Z,19.21
2018-08-17T02:11:46.054Z,19.20
2018-08-17T02:17:50.816Z,19.04
2018-08-17T02:23:55.486Z,18.89
2018-08-17T02:30:00.596Z,18.82
2018-08-17T02:36:05.306Z,18.69
2018-08-17T02:42:10.149Z,18.86
2018-08-17T02:48:14.811Z,18.55
2018-08-17T02:54:19.548Z,18.48
2018-08-17T03:00:24.268Z,18.45
2018-08-17T03:06:29.049Z,18.31
2018-08-17T03:12:34.137Z,18.23
2018-08-17T03:18:38.904Z,18.24
2018-08-17T03:24:43.698Z,18.29
2018-08-17T03:30:48.352Z,18.03
2018-08-17T03:36:53.366Z,17.97
2018-08-17T03:42:58.153Z,17.99
2018-08-17T03:49:02.975Z,18.07
2018-08-17T03:55:07.714Z,17.98
2018-08-17T04:01:12.782Z,18.14
2018-08-17T04:07:17.436Z,18.23
2018-08-17T04:13:22.165Z,18.21
2018-08-17T04:19:26.834Z,18.35
2018-08-17T04:25:33.417Z,18.17
2018-08-17T04:31:38.145Z,18.12
2018-08-17T04:37:42.828Z,18.00
2018-08-17T04:43:47.557Z,18.25
2018-08-17T04:49:52.289Z,18.19
2018-08-17T04:55:56.981Z,18.30
2018-08-17T05:02:01.804Z,18.64
2018-08-17T05:08:06.544Z,18.84
2018-08-17T05:14:11.350Z,19.22
2018-08-17T05:20:16.403Z,19.36
2018-08-17T05:26:21.069Z,19.63
2018-08-17T05:32:25.736Z,19.97
2018-08-17T05:38:30.572Z,20.33
2018-08-17T05:44:36.063Z,20.43
2018-08-17T05:50:40.748Z,20.52
2018-08-17T05:56:45.934Z,20.86
2018-08-17T06:02:50.885Z,20.86
2018-08-17T06:08:55.626Z,21.09
2018-08-17T06:15:00.440Z,21.33
2018-08-17T06:21:05.806Z,21.57
2018-08-17T06:27:10.603Z,21.52
2018-08-17T06:33:15.297Z,21.88
2018-08-17T06:39:20.147Z,22.19
2018-08-17T06:45:24.827Z,22.58
2018-08-17T06:51:30.552Z,22.79
2018-08-17T06:57:35.464Z,23.22
2018-08-17T07:03:40.117Z,23.38
2018-08-17T07:09:45.094Z,23.43
2018-08-17T07:15:49.804Z,23.70
2018-08-17T07:21:54.571Z,23.76
2018-08-17T07:27:59.359Z,24.16
2018-08-17T07:34:04.626Z,24.12
2018-08-17T07:40:10.335Z,24.34
2018-08-17T07:46:15.135Z,24.69
2018-08-17T07:52:19.776Z,24.99
2018-08-17T07:58:24.836Z,25.28
2018-08-17T08:04:29.640Z,25.26
2018-08-17T08:10:35.250Z,25.33
2018-08-17T08:16:40.120Z,24.99
2018-08-17T08:22:45.055Z,25.11
2018-08-17T08:28:49.972Z,25.50
2018-08-17T08:34:54.752Z,25.43
2018-08-17T08:41:00.408Z,25.50
2018-08-17T08:47:05.218Z,25.50
2018-08-17T08:53:10.483Z,25.68
2018-08-17T08:59:15.323Z,26.20
2018-08-17T09:05:20.564Z,26.06
2018-08-17T09:11:25.386Z,26.61
2018-08-17T09:17:30.968Z,26.77
2018-08-17T09:23:35.650Z,27.15
2018-08-17T09:29:40.488Z,26.96
2018-08-17T09:35:45.538Z,26.98
2018-08-17T09:41:50.362Z,26.94
2018-08-17T09:47:54.940Z,27.22
2018-08-17T09:54:00.320Z,27.10
2018-08-17T10:00:06.972Z,27.24
2018-08-17T10:06:16.894Z,27.67
2018-08-17T10:12:21.672Z,28.29
2018-08-17T10:18:33.187Z,29.05
2018-08-17T10:24:38.406Z,29.78
2018-08-17T10:30:43.264Z,29.39
2018-08-17T10:36:48.236Z,29.74
2018-08-17T10:42:52.933Z,31.03
2018-08-17T10:48:57.673Z,32.53
2018-08-17T10:55:03.166Z,32.29
2018-08-17T11:01:08.137Z,32.94
2018-08-17T11:07:13.090Z,33.58
2018-08-17T11:13:18.098Z,35.24
2018-08-17T11:19:22.791Z,35.64
2018-08-17T11:25:27.853Z,36.68
2018-08-17T11:31:33.738Z,36.08
2018-08-17T11:37:38.525Z,36.86
2018-08-17T11:43:43.184Z,37.24
2018-08-17T11:49:48.224Z,37.44
2018-08-17T11:55:52.904Z,35.49
2018-08-17T12:01:57.840Z,37.19
2018-08-17T12:08:04.569Z,37.77
2018-08-17T12:14:09.399Z,38.24
2018-08-17T12:20:14.108Z,38.95
2018-08-17T12:26:18.901Z,38.46
2018-08-17T12:32:24.470Z,38.58
2018-08-17T12:38:29.398Z,38.71
2018-08-17T12:44:34.495Z,39.00
2018-08-17T12:50:39.298Z,39.82
2018-08-17T12:56:43.973Z,38.18
2018-08-17T13:02:48.730Z,39.42
2018-08-17T13:08:53.489Z,40.38
2018-08-17T13:14:58.213Z,40.36
2018-08-17T13:21:03.959Z,41.16
2018-08-17T13:27:08.708Z,41.54
2018-08-17T13:33:13.376Z,41.26
2018-08-17T13:39:18.391Z,39.99
2018-08-17T13:45:23.184Z,39.88
2018-08-17T13:51:27.952Z,40.07
2018-08-17T13:57:32.838Z,37.89
2018-08-17T14:03:37.702Z,35.69
2018-08-17T14:09:42.443Z,36.14
2018-08-17T14:15:47.143Z,36.69
2018-08-17T14:21:51.906Z,37.44
2018-08-17T14:27:56.599Z,35.64
2018-08-17T14:34:01.395Z,36.88
2018-08-17T14:40:06.875Z,38.39
2018-08-17T14:46:11.551Z,38.33
2018-08-17T14:52:16.377Z,34.64
2018-08-17T14:58:21.057Z,35.04
2018-08-17T15:04:25.837Z,35.81
2018-08-17T15:10:30.984Z,35.01
2018-08-17T15:16:35.866Z,34.11
2018-08-17T15:22:40.658Z,34.35
2018-08-17T15:28:45.504Z,35.58
2018-08-17T15:34:50.197Z,34.65
2018-08-17T15:40:55.300Z,33.92
2018-08-17T15:47:00.307Z,34.27
2018-08-17T15:53:05.373Z,33.97
2018-08-17T15:59:10.160Z,33.76
2018-08-17T16:05:15.350Z,32.22
2018-08-17T16:11:20.057Z,31.08
2018-08-17T16:17:24.740Z,30.10
2018-08-17T16:23:29.542Z,29.18
2018-08-17T16:29:34.371Z,28.49
2018-08-17T16:35:39.252Z,28.74
2018-08-17T16:41:44.232Z,28.23
2018-08-17T16:47:48.924Z,27.18
2018-08-17T16:53:54.703Z,26.33
2018-08-17T16:59:59.616Z,25.45
2018-08-17T17:06:05.771Z,25.34
2018-08-17T17:12:18.166Z,24.87
2018-08-17T17:18:22.838Z,24.94
2018-08-17T17:24:27.671Z,25.69
2018-08-17T17:30:42.443Z,26.25
2018-08-17T17:36:47.154Z,26.87
2018-08-17T17:42:51.965Z,26.61
2018-08-17T17:48:56.583Z,26.04
2018-08-17T17:55:01.826Z,26.12
2018-08-17T18:01:07.713Z,25.48
2018-08-17T18:07:12.551Z,25.51
2018-08-17T18:13:17.769Z,25.06
2018-08-17T18:19:22.677Z,24.38
2018-08-17T18:25:27.340Z,24.01
2018-08-17T18:31:32.829Z,23.74
2018-08-17T18:37:37.756Z,23.61
2018-08-17T18:43:42.558Z,23.33
2018-08-17T18:49:47.200Z,23.02
2018-08-17T18:55:51.860Z,23.12
2018-08-17T19:01:56.672Z,22.87
2018-08-17T19:08:01.905Z,22.82
2018-08-17T19:14:06.940Z,22.83
2018-08-17T19:20:13.999Z,22.67
2018-08-17T19:26:18.715Z,22.40
2018-08-17T19:32:23.530Z,22.28
2018-08-17T19:38:28.682Z,22.25
2018-08-17T19:44:34.331Z,21.95
2018-08-17T19:50:38.982Z,21.83
2018-08-17T19:56:43.649Z,21.64
2018-08-17T20:02:48.365Z,21.50
2018-08-17T20:08:53.056Z,21.60
2018-08-17T20:14:57.774Z,21.31
2018-08-17T20:21:03.238Z,21.06
2018-08-17T20:27:08.298Z,21.17
2018-08-17T20:33:21.844Z,20.89
2018-08-17T20:39:26.477Z,20.89
2018-08-17T20:45:31.530Z,20.93
2018-08-17T20:51:43.516Z,20.99
2018-08-17T20:57:51.882Z,20.86
2018-08-17T21:03:56.592Z,20.80
2018-08-17T21:10:01.761Z,20.79
2018-08-17T21:16:06.544Z,20.80
2018-08-17T21:22:11.580Z,20.58
2018-08-17T21:28:16.728Z,20.72
2018-08-17T21:34:21.631Z,20.59
2018-08-17T21:40:29.087Z,20.59
2018-08-17T21:46:33.874Z,20.58
2018-08-17T21:52:38.558Z,20.42
2018-08-17T21:58:43.239Z,20.51
2018-08-17T22:04:48.242Z,20.34
2018-08-17T22:10:53.673Z,20.11
2018-08-17T22:16:58.573Z,20.20
2018-08-17T22:23:03.418Z,19.98
2018-08-17T22:29:08.145Z,19.94
2018-08-17T22:35:13.544Z,20.11
2018-08-17T22:41:18.588Z,20.23
2018-08-17T22:47:28.686Z,20.13
2018-08-17T22:53:34.445Z,20.44
2018-08-17T22:59:39.518Z,20.51
2018-08-17T23:05:44.519Z,20.18
2018-08-17T23:11:49.174Z,20.31
2018-08-17T23:17:58.172Z,20.06
2018-08-17T23:24:03.138Z,20.23
2018-08-17T23:30:08.305Z,20.27
2018-08-17T23:36:12.990Z,19.93
2018-08-17T23:42:17.860Z,20.00
2018-08-17T23:48:22.799Z,20.02
2018-08-17T23:54:27.453Z,19.76
